createdAt,value
2023-02-11T00:00:27.062Z,1.04
2023-02-11T00:01:27.288Z,1.04
2023-02-11T00:02:27.411Z,1.04
2023-02-11T00:03:27.557Z,1.04
2023-02-11T00:04:27.654Z,1.04
2023-02-11T00:05:27.811Z,1.04
2023-02-11T00:06:28.059Z,1.04
2023-02-11T00:07:28.120Z,1.04
2023-02-11T00:08:28.262Z,1.04
2023-02-11T00:09:30.356Z,1.04
2023-02-11T00:10:28.535Z,1.04
2023-02-11T00:11:28.675Z,1.04
2023-02-11T00:12:28.837Z,1.04
2023-02-11T00:13:28.964Z,1.04
2023-02-11T00:14:29.154Z,1.04
2023-02-11T00:15:29.284Z,1.04
2023-02-11T00:16:29.405Z,1.04
2023-02-11T00:17:29.522Z,1.04
2023-02-11T00:18:29.684Z,1.04
2023-02-11T00:19:29.844Z,1.04
2023-02-11T00:20:29.988Z,1.04
2023-02-11T00:21:30.161Z,1.04
2023-02-11T00:22:30.298Z,1.04
2023-02-11T00:23:30.439Z,1.04
2023-02-11T00:24:30.639Z,1.04
2023-02-11T00:25:30.739Z,1.04
2023-02-11T00:26:30.918Z,1.04
2023-02-11T00:27:31.064Z,1.04
2023-02-11T00:28:31.244Z,1.04
2023-02-11T00:29:31.296Z,1.04
2023-02-11T00:30:31.465Z,1.04
2023-02-11T00:31:31.670Z,1.04
2023-02-11T00:32:31.703Z,1.04
2023-02-11T00:33:31.860Z,1.04
2023-02-11T00:34:32.008Z,1.04
2023-02-11T00:35:32.163Z,1.04
2023-02-11T00:36:32.312Z,1.04
2023-02-11T00:37:32.462Z,1.04
2023-02-11T00:38:32.601Z,1.04
2023-02-11T00:39:32.761Z,1.04
2023-02-11T00:40:32.908Z,1.04
2023-02-11T00:41:33.016Z,1.04
2023-02-11T00:42:33.167Z,1.04
2023-02-11T00:43:33.277Z,1.04
2023-02-11T00:44:33.431Z,1.04
2023-02-11T00:45:33.549Z,1.04
2023-02-11T00:46:33.768Z,1.04
2023-02-11T00:47:33.885Z,1.04
2023-02-11T00:48:34.028Z,1.04
2023-02-11T00:49:34.527Z,1.04
2023-02-11T00:50:34.648Z,1.04
2023-02-11T00:51:34.431Z,1.04
2023-02-11T00:52:34.580Z,1.04
2023-02-11T00:53:34.738Z,1.04
2023-02-11T00:54:34.901Z,1.04
2023-02-11T00:55:35.057Z,1.04
2023-02-11T00:56:35.190Z,1.04
2023-02-11T00:57:35.335Z,1.04
2023-02-11T00:58:35.491Z,1.04
2023-02-11T00:59:35.632Z,1.04
2023-02-11T01:00:35.788Z,1.04
2023-02-11T01:01:35.996Z,1.04
2023-02-11T01:02:36.031Z,1.04
2023-02-11T01:03:36.223Z,1.04
2023-02-11T01:04:36.369Z,1.04
2023-02-11T01:05:36.524Z,1.04
2023-02-11T01:06:36.667Z,1.04
2023-02-11T01:07:36.809Z,1.04
2023-02-11T01:08:36.959Z,1.04
2023-02-11T01:09:37.046Z,1.04
2023-02-11T01:10:37.157Z,1.04
2023-02-11T01:11:37.329Z,1.04
2023-02-11T01:12:37.463Z,1.04
2023-02-11T01:13:37.613Z,1.04
2023-02-11T01:14:37.762Z,1.04
2023-02-11T01:15:37.939Z,1.04
2023-02-11T01:16:38.058Z,1.04
2023-02-11T01:17:38.206Z,1.04
2023-02-11T01:18:38.361Z,1.04
2023-02-11T01:19:38.540Z,1.04
2023-02-11T01:20:38.680Z,1.04
2023-02-11T01:21:38.824Z,1.04
2023-02-11T01:22:38.984Z,1.04
2023-02-11T01:23:39.119Z,1.04
2023-02-11T01:24:39.290Z,1.04
2023-02-11T01:25:39.455Z,1.04
2023-02-11T01:26:39.582Z,1.04
2023-02-11T01:27:39.734Z,1.04
2023-02-11T01:28:40.039Z,1.04
2023-02-11T01:29:39.992Z,1.04
2023-02-11T01:30:40.196Z,1.04
2023-02-11T01:31:40.306Z,1.04
2023-02-11T01:32:40.390Z,1.04
2023-02-11T01:33:40.542Z,1.04
2023-02-11T01:34:40.696Z,1.04
2023-02-11T01:35:40.846Z,1.04
2023-02-11T01:36:40.989Z,1.04
2023-02-11T01:37:41.156Z,1.04
2023-02-11T01:38:41.457Z,1.04
2023-02-11T01:39:41.439Z,1.04
2023-02-11T01:40:41.607Z,1.04
2023-02-11T01:41:41.758Z,1.04
2023-02-11T01:42:41.906Z,1.04
2023-02-11T01:43:42.049Z,1.04
2023-02-11T01:44:42.220Z,1.04
2023-02-11T01:45:42.297Z,1.04
2023-02-11T01:46:42.418Z,1.04
2023-02-11T01:47:42.574Z,1.04
2023-02-11T01:48:42.721Z,1.04
2023-02-11T01:49:42.959Z,1.04
2023-02-11T01:50:42.970Z,1.04
2023-02-11T01:51:43.159Z,1.04
2023-02-11T01:52:43.333Z,1.04
2023-02-11T01:53:43.464Z,1.04
2023-02-11T01:54:43.640Z,1.04
2023-02-11T01:55:43.784Z,1.04
2023-02-11T01:56:43.938Z,1.04
2023-02-11T01:57:44.100Z,1.04
2023-02-11T01:58:44.169Z,1.04
2023-02-11T01:59:44.319Z,1.04
2023-02-11T02:00:44.434Z,1.04
2023-02-11T02:01:44.661Z,1.04
2023-02-11T02:02:44.728Z,1.04
2023-02-11T02:03:44.893Z,1.04
2023-02-11T02:04:44.997Z,1.04
2023-02-11T02:05:45.143Z,1.04
2023-02-11T02:06:45.298Z,1.04
2023-02-11T02:07:45.402Z,1.04
2023-02-11T02:08:45.484Z,1.04
2023-02-11T02:09:45.673Z,1.04
2023-02-11T02:10:45.799Z,1.04
2023-02-11T02:11:45.946Z,1.04
2023-02-11T02:12:46.113Z,1.04
2023-02-11T02:13:46.244Z,1.04
2023-02-11T02:14:46.408Z,1.04
2023-02-11T02:15:46.580Z,1.04
2023-02-11T02:16:46.665Z,1.04
2023-02-11T02:17:46.788Z,1.04
2023-02-11T02:18:46.945Z,1.04
2023-02-11T02:19:47.091Z,1.04
2023-02-11T02:20:47.253Z,1.04
2023-02-11T02:21:47.409Z,1.04
2023-02-11T02:22:47.559Z,1.04
2023-02-11T02:23:47.711Z,1.04
2023-02-11T02:24:47.880Z,1.04
2023-02-11T02:25:48.153Z,1.04
2023-02-11T02:26:48.064Z,1.04
2023-02-11T02:27:48.234Z,1.04
2023-02-11T02:28:48.371Z,1.04
2023-02-11T02:29:48.542Z,1.04
2023-02-11T02:30:48.722Z,1.04
2023-02-11T02:31:48.841Z,1.04
2023-02-11T02:32:48.934Z,1.04
2023-02-11T02:33:49.067Z,1.04
2023-02-11T02:34:49.216Z,1.04
2023-02-11T02:35:49.586Z,1.04
2023-02-11T02:36:49.516Z,1.04
2023-02-11T02:37:49.619Z,1.04
2023-02-11T02:38:49.756Z,1.04
2023-02-11T02:39:49.876Z,1.04
2023-02-11T02:40:50.027Z,1.04
2023-02-11T02:41:50.186Z,1.04
2023-02-11T02:42:50.321Z,1.04
2023-02-11T02:43:50.487Z,1.04
2023-02-11T02:44:50.644Z,1.04
2023-02-11T02:45:51.044Z,1.04
2023-02-11T02:46:50.993Z,1.04
2023-02-11T02:47:51.093Z,1.04
2023-02-11T02:48:51.238Z,1.04
2023-02-11T02:49:51.348Z,1.04
2023-02-11T02:50:51.484Z,1.04
2023-02-11T02:51:51.611Z,1.04
2023-02-11T02:52:51.699Z,1.04
2023-02-11T02:53:51.836Z,1.04
2023-02-11T02:54:51.990Z,1.04
2023-02-11T02:55:52.232Z,1.04
2023-02-11T02:56:52.262Z,1.04
2023-02-11T02:57:52.418Z,1.04
2023-02-11T02:58:52.553Z,1.04
2023-02-11T02:59:52.711Z,1.04
2023-02-11T03:00:52.851Z,1.04
2023-02-11T03:01:52.907Z,1.04
2023-02-11T03:02:53.016Z,1.04
2023-02-11T03:03:53.225Z,1.04
2023-02-11T03:04:53.317Z,1.04
2023-02-11T03:05:53.666Z,1.04
2023-02-11T03:06:53.564Z,1.04
2023-02-11T03:07:53.716Z,1.04
2023-02-11T03:08:53.862Z,1.04
2023-02-11T03:09:54.023Z,1.04
2023-02-11T03:10:54.173Z,1.04
2023-02-11T03:11:54.287Z,1.04
2023-02-11T03:12:54.430Z,1.04
2023-02-11T03:13:54.598Z,1.04
2023-02-11T03:14:54.762Z,1.04
2023-02-11T03:15:55.001Z,1.04
2023-02-11T03:16:54.976Z,1.04
2023-02-11T03:17:55.077Z,1.04
2023-02-11T03:18:55.248Z,1.04
2023-02-11T03:19:55.402Z,1.04
2023-02-11T03:20:55.544Z,1.04
2023-02-11T03:21:55.703Z,1.04
2023-02-11T03:22:55.843Z,1.04
2023-02-11T03:23:56.010Z,1.04
2023-02-11T03:24:56.149Z,1.04
2023-02-11T03:25:56.271Z,1.04
2023-02-11T03:26:56.405Z,1.04
2023-02-11T03:27:56.602Z,1.04
2023-02-11T03:28:56.669Z,1.04
2023-02-11T03:29:56.808Z,1.04
2023-02-11T03:30:56.992Z,1.04
2023-02-11T03:31:57.179Z,1.04
2023-02-11T03:32:57.271Z,1.04
2023-02-11T03:33:57.413Z,1.04
2023-02-11T03:34:57.559Z,1.04
2023-02-11T03:35:57.674Z,1.04
2023-02-11T03:36:57.814Z,1.04
2023-02-11T03:37:57.999Z,1.04
2023-02-11T03:38:58.111Z,1.04
2023-02-11T03:39:58.211Z,1.04
2023-02-11T03:40:58.383Z,1.04
2023-02-11T03:41:58.534Z,1.04
2023-02-11T03:42:58.686Z,1.04
2023-02-11T03:43:58.833Z,1.04
2023-02-11T03:44:58.986Z,1.04
2023-02-11T03:45:59.156Z,1.04
2023-02-11T03:46:59.278Z,1.04
2023-02-11T03:47:59.453Z,1.04
2023-02-11T03:48:59.600Z,1.04
2023-02-11T03:49:59.737Z,1.04
2023-02-11T03:50:59.908Z,1.04
2023-02-11T03:51:59.996Z,1.04
2023-02-11T03:53:00.164Z,1.04
2023-02-11T03:54:00.256Z,1.04
2023-02-11T03:55:00.352Z,1.04
2023-02-11T03:56:00.570Z,1.04
2023-02-11T03:57:00.652Z,1.04
2023-02-11T03:58:00.817Z,1.04
2023-02-11T03:59:00.953Z,1.04
2023-02-11T04:00:01.071Z,1.04
2023-02-11T04:01:01.242Z,1.04
2023-02-11T04:02:01.314Z,1.04
2023-02-11T04:03:01.465Z,1.04
2023-02-11T04:04:01.594Z,1.04
2023-02-11T04:05:01.669Z,1.04
2023-02-11T04:06:01.797Z,1.04
2023-02-11T04:07:01.960Z,1.04
2023-02-11T04:08:02.100Z,1.04
2023-02-11T04:09:02.214Z,1.04
2023-02-11T04:10:02.371Z,1.04
2023-02-11T04:11:02.512Z,1.04
2023-02-11T04:12:02.676Z,1.04
2023-02-11T04:13:02.803Z,1.04
2023-02-11T04:14:02.926Z,1.04
2023-02-11T04:15:03.029Z,1.04
2023-02-11T04:16:03.297Z,1.04
2023-02-11T04:17:03.286Z,1.04
2023-02-11T04:18:03.448Z,1.04
2023-02-11T04:19:03.581Z,1.04
2023-02-11T04:20:03.731Z,1.04
2023-02-11T04:21:03.885Z,1.04
2023-02-11T04:22:04.037Z,1.04
2023-02-11T04:23:04.208Z,1.04
2023-02-11T04:24:04.337Z,1.04
2023-02-11T04:25:04.482Z,1.04
2023-02-11T04:26:04.662Z,1.04
2023-02-11T04:27:04.798Z,1.04
2023-02-11T04:28:04.976Z,1.04
2023-02-11T04:29:05.083Z,1.04
2023-02-11T04:30:05.253Z,1.04
2023-02-11T04:31:05.568Z,1.04
2023-02-11T04:32:05.592Z,1.04
2023-02-11T04:33:05.647Z,1.04
2023-02-11T04:34:05.805Z,1.04
2023-02-11T04:35:05.952Z,1.04
2023-02-11T04:36:06.095Z,1.04
2023-02-11T04:37:06.204Z,1.04
2023-02-11T04:38:06.354Z,1.04
2023-02-11T04:39:06.509Z,1.04
2023-02-11T04:40:06.620Z,1.04
2023-02-11T04:41:06.757Z,1.04
2023-02-11T04:42:06.874Z,1.04
2023-02-11T04:43:07.009Z,1.04
2023-02-11T04:44:07.123Z,1.04
2023-02-11T04:45:07.223Z,1.04
2023-02-11T04:46:07.390Z,1.04
2023-02-11T04:47:07.516Z,1.04
2023-02-11T04:48:07.618Z,1.04
2023-02-11T04:49:07.784Z,1.04
2023-02-11T04:50:07.928Z,1.04
2023-02-11T04:51:08.073Z,1.04
2023-02-11T04:52:08.244Z,1.04
2023-02-11T04:53:08.375Z,1.04
2023-02-11T04:54:08.547Z,1.04
2023-02-11T04:55:08.663Z,1.04
2023-02-11T04:56:08.823Z,1.04
2023-02-11T04:57:09.013Z,1.04
2023-02-11T04:58:09.132Z,1.04
2023-02-11T04:59:09.263Z,1.04
2023-02-11T05:00:09.425Z,1.04
2023-02-11T05:01:09.631Z,1.04
2023-02-11T05:02:10.306Z,1.04
2023-02-11T05:03:09.827Z,1.04
2023-02-11T05:04:10.064Z,1.04
2023-02-11T05:05:10.106Z,1.04
2023-02-11T05:06:10.250Z,1.04
2023-02-11T05:07:10.393Z,1.04
2023-02-11T05:08:10.509Z,1.04
2023-02-11T05:09:10.601Z,1.04
2023-02-11T05:10:10.754Z,1.04
2023-02-11T05:11:10.915Z,1.04
2023-02-11T05:12:11.081Z,1.04
2023-02-11T05:13:11.211Z,1.04
2023-02-11T05:14:11.321Z,1.04
2023-02-11T05:15:11.461Z,1.04
2023-02-11T05:16:11.772Z,1.04
2023-02-11T05:17:11.725Z,1.04
2023-02-11T05:18:11.870Z,1.04
2023-02-11T05:19:12.039Z,1.04
2023-02-11T05:20:12.172Z,1.04
2023-02-11T05:21:12.277Z,1.04
2023-02-11T05:22:12.416Z,1.04
2023-02-11T05:23:12.569Z,1.04
2023-02-11T05:24:12.730Z,1.04
2023-02-11T05:25:12.823Z,1.04
2023-02-11T05:26:12.966Z,1.04
2023-02-11T05:27:13.142Z,1.04
2023-02-11T05:28:13.362Z,1.04
2023-02-11T05:29:13.386Z,1.04
2023-02-11T05:30:13.537Z,1.04
2023-02-11T05:31:13.725Z,1.04
2023-02-11T05:32:13.806Z,1.04
2023-02-11T05:33:13.890Z,1.04
2023-02-11T05:34:14.048Z,1.04
2023-02-11T05:35:14.140Z,1.04
2023-02-11T05:36:14.255Z,1.04
2023-02-11T05:37:14.408Z,1.04
2023-02-11T05:38:14.546Z,1.04
2023-02-11T05:39:14.690Z,1.04
2023-02-11T05:40:14.836Z,1.04
2023-02-11T05:41:14.996Z,1.04
2023-02-11T05:42:15.141Z,1.04
2023-02-11T05:43:15.300Z,1.04
2023-02-11T05:44:15.460Z,1.04
2023-02-11T05:45:15.589Z,1.04
2023-02-11T05:46:15.781Z,1.04
2023-02-11T05:47:15.904Z,1.04
2023-02-11T05:48:16.055Z,1.04
2023-02-11T05:49:16.217Z,1.04
2023-02-11T05:50:16.367Z,1.04
2023-02-11T05:51:16.464Z,1.04
2023-02-11T05:52:16.614Z,1.04
2023-02-11T05:53:16.708Z,1.04
2023-02-11T05:54:16.870Z,1.04
2023-02-11T05:55:16.977Z,1.04
2023-02-11T05:56:17.130Z,1.04
2023-02-11T05:57:17.263Z,2
2023-02-11T05:58:17.440Z,2
2023-02-11T05:59:17.595Z,2
2023-02-11T06:00:17.657Z,2
2023-02-11T06:01:17.781Z,3.04
2023-02-11T06:02:17.962Z,3.04
2023-02-11T06:03:18.145Z,3.04
2023-02-11T06:04:18.182Z,4
2023-02-11T06:05:18.339Z,5.04
2023-02-11T06:06:18.490Z,5.04
2023-02-11T06:07:18.634Z,6
2023-02-11T06:08:18.785Z,7.04
2023-02-11T06:09:18.940Z,8
2023-02-11T06:10:19.091Z,9.04
2023-02-11T06:11:19.236Z,11.04
2023-02-11T06:12:19.348Z,13.04
2023-02-11T06:13:19.495Z,15.04
2023-02-11T06:14:19.665Z,17.04
2023-02-11T06:15:19.796Z,19.04
2023-02-11T06:16:20.016Z,21.04
2023-02-11T06:17:20.049Z,24
2023-02-11T06:18:20.178Z,28
2023-02-11T06:19:20.346Z,33.04
2023-02-11T06:20:20.530Z,37.04
2023-02-11T06:21:20.660Z,40
2023-02-11T06:22:20.808Z,43.04
2023-02-11T06:23:20.947Z,48
2023-02-11T06:24:44.256Z,52
2023-02-11T06:25:21.169Z,58
2023-02-11T06:26:21.282Z,63.04
2023-02-11T06:27:21.420Z,72
2023-02-11T06:28:21.591Z,79.04
2023-02-11T06:29:21.665Z,85.04
2023-02-11T06:30:21.806Z,92
2023-02-11T06:31:22.049Z,105.04
2023-02-11T06:32:39.773Z,115.04
2023-02-11T06:33:22.269Z,129.04
2023-02-11T06:34:22.426Z,146
2023-02-11T06:35:22.593Z,160
2023-02-11T06:36:22.722Z,175.04
2023-02-11T06:37:22.875Z,189.12
2023-02-11T06:38:23.027Z,198.08
2023-02-11T06:39:23.182Z,216
2023-02-11T06:40:23.355Z,242.08
2023-02-11T06:41:23.495Z,268
2023-02-11T06:42:23.581Z,284
2023-02-11T06:43:23.749Z,303.04
2023-02-11T06:44:23.891Z,341.12
2023-02-11T06:45:24.034Z,379.2
2023-02-11T06:46:24.294Z,384
2023-02-11T06:47:24.351Z,369.28
2023-02-11T06:48:24.515Z,381.12
2023-02-11T06:49:24.625Z,393.28
2023-02-11T06:50:24.757Z,394.24
2023-02-11T06:51:24.904Z,402.24
2023-02-11T06:52:25.066Z,476.16
2023-02-11T06:53:25.221Z,552
2023-02-11T06:54:25.350Z,609.28
2023-02-11T06:55:25.513Z,628.16
2023-02-11T06:56:25.650Z,652.16
2023-02-11T06:57:25.760Z,624
2023-02-11T06:58:25.900Z,653.12
2023-02-11T06:59:26.046Z,724.48
2023-02-11T07:00:26.164Z,739.2
2023-02-11T07:01:26.384Z,784
2023-02-11T07:02:26.530Z,866.56
2023-02-11T07:03:26.621Z,895.36
2023-02-11T07:04:26.768Z,887.04
2023-02-11T07:05:26.906Z,889.6
2023-02-11T07:06:27.059Z,989.44
2023-02-11T07:07:27.178Z,1051.52
2023-02-11T07:08:27.314Z,1043.2
2023-02-11T07:09:27.423Z,1002.24
2023-02-11T07:10:27.522Z,1058.56
2023-02-11T07:11:27.732Z,1102.08
2023-02-11T07:12:27.825Z,1041.28
2023-02-11T07:13:27.929Z,975.36
2023-02-11T07:14:28.079Z,1006.08
2023-02-11T07:15:28.239Z,1092.48
2023-02-11T07:16:28.471Z,1191.04
2023-02-11T07:17:28.473Z,1472
2023-02-11T07:18:28.580Z,1715.2
2023-02-11T07:19:28.682Z,1932.8
2023-02-11T07:20:28.820Z,2016
2023-02-11T07:21:28.989Z,2039.04
2023-02-11T07:22:29.127Z,2085.12
2023-02-11T07:23:29.225Z,2042.88
2023-02-11T07:24:29.380Z,1984
2023-02-11T07:25:29.535Z,2021.12
2023-02-11T07:26:29.690Z,2076.16
2023-02-11T07:27:29.832Z,1880.32
2023-02-11T07:28:30.064Z,1722.88
2023-02-11T07:29:30.158Z,1785.6
2023-02-11T07:30:30.285Z,1619.2
2023-02-11T07:31:30.528Z,1501.44
2023-02-11T07:32:30.505Z,1422.08
2023-02-11T07:33:30.632Z,1332.48
2023-02-11T07:34:30.778Z,1244.16
2023-02-11T07:35:30.889Z,1139.2
2023-02-11T07:36:31.071Z,1109.12
2023-02-11T07:37:31.233Z,1132.16
2023-02-11T07:38:31.383Z,1246.08
2023-02-11T07:39:31.523Z,1459.2
2023-02-11T07:40:31.708Z,1667.84
2023-02-11T07:41:31.825Z,2001.92
2023-02-11T07:42:32.012Z,2151.68
2023-02-11T07:43:32.142Z,2236.16
2023-02-11T07:44:32.285Z,2310.4
2023-02-11T07:45:32.448Z,2347.52
2023-02-11T07:46:32.648Z,2315.52
2023-02-11T07:47:32.621Z,2464
2023-02-11T07:48:32.780Z,2497.28
2023-02-11T07:49:33.405Z,2380.8
2023-02-11T07:50:33.035Z,2659.84
2023-02-11T07:51:33.126Z,3008
2023-02-11T07:52:33.261Z,3110.4
2023-02-11T07:53:33.382Z,3110.4
2023-02-11T07:54:33.536Z,3389.44
2023-02-11T07:55:33.679Z,3540.48
2023-02-11T07:56:33.788Z,3694.08
2023-02-11T07:57:33.957Z,3919.36
2023-02-11T07:58:34.092Z,4088.32
2023-02-11T07:59:34.247Z,4293.12
2023-02-11T08:00:34.392Z,4254.72
2023-02-11T08:01:34.459Z,4346.88
2023-02-11T08:02:34.620Z,4549.12
2023-02-11T08:03:34.711Z,4490.24
2023-02-11T08:04:34.846Z,4613.12
2023-02-11T08:05:34.990Z,4669.44
2023-02-11T08:06:35.097Z,4441.6
2023-02-11T08:07:35.241Z,4006.4
2023-02-11T08:08:35.413Z,3834.88
2023-02-11T08:09:35.561Z,3870.72
2023-02-11T08:10:35.727Z,3921.92
2023-02-11T08:11:35.855Z,3904
2023-02-11T08:12:35.974Z,3837.44
2023-02-11T08:13:36.120Z,3742.72
2023-02-11T08:14:36.268Z,3596.8
2023-02-11T08:15:36.436Z,3205.12
2023-02-11T08:16:36.573Z,2977.28
2023-02-11T08:17:36.672Z,2836.48
2023-02-11T08:18:36.823Z,2874.88
2023-02-11T08:19:36.987Z,2923.52
2023-02-11T08:20:37.134Z,3023.36
2023-02-11T08:21:37.304Z,3171.84
2023-02-11T08:22:37.437Z,3438.08
2023-02-11T08:23:37.531Z,3466.24
2023-02-11T08:24:37.695Z,3315.2
2023-02-11T08:25:37.827Z,3182.08
2023-02-11T08:26:37.935Z,3074.56
2023-02-11T08:27:38.084Z,3061.76
2023-02-11T08:28:38.231Z,3187.2
2023-02-11T08:29:38.385Z,3212.8
2023-02-11T08:30:38.549Z,3000.32
2023-02-11T08:31:38.853Z,2723.84
2023-02-11T08:32:38.849Z,2639.36
2023-02-11T08:33:38.974Z,2746.88
2023-02-11T08:34:39.059Z,2721.28
2023-02-11T08:35:39.835Z,2836.48
2023-02-11T08:36:39.397Z,3046.4
2023-02-11T08:37:39.490Z,3220.48
2023-02-11T08:38:39.640Z,3425.28
2023-02-11T08:39:39.735Z,3909.12
2023-02-11T08:40:39.906Z,3944.96
2023-02-11T08:41:39.993Z,3993.6
2023-02-11T08:42:40.092Z,3988.48
2023-02-11T08:43:40.198Z,4198.4
2023-02-11T08:44:40.343Z,4416
2023-02-11T08:45:40.519Z,4538.88
2023-02-11T08:46:40.547Z,4367.36
2023-02-11T08:47:40.708Z,4203.52
2023-02-11T08:48:40.850Z,4275.2
2023-02-11T08:49:40.964Z,4467.2
2023-02-11T08:50:41.113Z,4469.76
2023-02-11T08:51:41.275Z,4326.4
2023-02-11T08:52:41.417Z,4293.12
2023-02-11T08:53:41.576Z,4316.16
2023-02-11T08:54:41.727Z,4395.52
2023-02-11T08:55:41.881Z,4398.08
2023-02-11T08:56:42.027Z,4121.6
2023-02-11T08:57:42.208Z,3438.08
2023-02-11T08:58:42.325Z,2854.4
2023-02-11T08:59:42.476Z,2769.92
2023-02-11T09:00:42.629Z,2915.84
2023-02-11T09:01:42.816Z,3033.6
2023-02-11T09:02:42.986Z,3837.44
2023-02-11T09:03:43.085Z,5237.76
2023-02-11T09:04:43.236Z,6005.76
2023-02-11T09:05:43.381Z,5980.16
2023-02-11T09:06:43.554Z,6364.16
2023-02-11T09:07:43.704Z,6737.92
2023-02-11T09:08:46.271Z,6563.84
2023-02-11T09:09:44.004Z,7147.52
2023-02-11T09:10:44.153Z,8381.44
2023-02-11T09:11:44.325Z,8729.6
2023-02-11T09:12:44.466Z,8033.28
2023-02-11T09:13:44.618Z,6640.64
2023-02-11T09:14:44.706Z,6415.36
2023-02-11T09:15:44.791Z,7168
2023-02-11T09:16:45.015Z,7132.16
2023-02-11T09:17:45.116Z,7541.76
2023-02-11T09:18:45.239Z,8750.08
2023-02-11T09:19:45.365Z,10506.24
2023-02-11T09:20:45.505Z,10946.56
2023-02-11T09:21:45.631Z,11653.12
2023-02-11T09:22:45.759Z,10833.92
2023-02-11T09:23:45.857Z,9405.439
2023-02-11T09:24:46.038Z,9123.84
2023-02-11T09:25:46.156Z,9415.68
2023-02-11T09:26:46.257Z,9640.96
2023-02-11T09:27:46.411Z,9277.439
2023-02-11T09:28:46.579Z,8217.6
2023-02-11T09:29:46.693Z,7424
2023-02-11T09:30:46.877Z,8243.2
2023-02-11T09:31:47.115Z,8028.16
2023-02-11T09:32:47.069Z,7331.84
2023-02-11T09:33:47.226Z,6691.84
2023-02-11T09:34:47.372Z,6609.92
2023-02-11T09:35:47.523Z,6533.12
2023-02-11T09:36:47.681Z,5345.28
2023-02-11T09:37:47.821Z,5329.92
2023-02-11T09:38:47.986Z,6410.24
2023-02-11T09:39:48.122Z,6297.6
2023-02-11T09:40:48.527Z,5529.6
2023-02-11T09:41:48.447Z,4992
2023-02-11T09:42:48.572Z,5181.44
2023-02-11T09:43:48.734Z,4787.2
2023-02-11T09:44:48.849Z,4001.28
2023-02-11T09:45:49.045Z,3545.6
2023-02-11T09:46:49.102Z,3612.16
2023-02-11T09:47:49.241Z,4257.28
2023-02-11T09:48:49.403Z,4710.4
2023-02-11T09:49:49.541Z,4659.2
2023-02-11T09:50:49.920Z,4216.32
2023-02-11T09:51:49.849Z,3520
2023-02-11T09:52:49.995Z,3061.76
2023-02-11T09:53:50.144Z,3015.68
2023-02-11T09:54:50.258Z,3258.88
2023-02-11T09:55:50.401Z,3440.64
2023-02-11T09:56:50.566Z,3491.84
2023-02-11T09:57:50.751Z,3466.24
2023-02-11T09:58:50.862Z,3363.84
2023-02-11T09:59:51.026Z,3435.52
2023-02-11T10:00:51.462Z,3699.2
2023-02-11T10:01:51.346Z,3950.08
2023-02-11T10:02:51.400Z,4920.32
2023-02-11T10:03:51.522Z,5089.28
2023-02-11T10:04:51.676Z,5498.88
2023-02-11T10:05:51.777Z,6400
2023-02-11T10:06:51.912Z,6440.96
2023-02-11T10:07:52.152Z,7767.04
2023-02-11T10:08:52.220Z,8458.24
2023-02-11T10:09:52.389Z,8217.6
2023-02-11T10:10:52.836Z,7582.72
2023-02-11T10:11:52.675Z,7710.72
2023-02-11T10:12:52.838Z,8355.84
2023-02-11T10:13:52.993Z,9180.16
2023-02-11T10:14:53.138Z,9989.12
2023-02-11T10:15:53.366Z,9369.6
2023-02-11T10:16:53.382Z,9093.12
2023-02-11T10:17:53.530Z,9472
2023-02-11T10:18:53.653Z,9932.8
2023-02-11T10:19:53.758Z,8791.04
2023-02-11T10:20:53.884Z,8263.68
2023-02-11T10:21:54.046Z,8069.12
2023-02-11T10:22:54.174Z,7966.72
2023-02-11T10:23:54.301Z,8135.68
2023-02-11T10:24:54.463Z,7767.04
2023-02-11T10:25:54.637Z,7434.24
2023-02-11T10:26:54.762Z,6661.12
2023-02-11T10:27:54.931Z,5934.08
2023-02-11T10:28:55.066Z,6425.6
2023-02-11T10:29:55.218Z,6384.64
2023-02-11T10:30:55.728Z,7285.76
2023-02-11T10:31:58.176Z,6645.76
2023-02-11T10:32:55.620Z,6287.36
2023-02-11T10:33:55.766Z,6215.68
2023-02-11T10:34:55.889Z,6640.64
2023-02-11T10:35:56.030Z,6594.56
2023-02-11T10:36:56.178Z,7173.12
2023-02-11T10:37:56.363Z,7557.12
2023-02-11T10:38:56.494Z,7864.32
2023-02-11T10:39:56.629Z,8140.8
2023-02-11T10:40:56.744Z,8458.24
2023-02-11T10:41:56.883Z,8442.88
2023-02-11T10:42:57.029Z,8407.04
2023-02-11T10:43:57.131Z,8980.479
2023-02-11T10:44:57.279Z,9943.04
2023-02-11T10:45:57.352Z,9630.72
2023-02-11T10:46:57.474Z,9395.2
2023-02-11T10:47:57.617Z,9589.76
2023-02-11T10:48:57.784Z,9958.399
2023-02-11T10:49:57.892Z,10368
2023-02-11T10:50:57.988Z,10408.96
2023-02-11T10:51:58.088Z,9344
2023-02-11T10:52:58.226Z,8227.84
2023-02-11T10:53:58.390Z,8791.04
2023-02-11T10:54:58.537Z,8750.08
2023-02-11T10:55:58.698Z,9635.84
2023-02-11T10:56:58.864Z,10337.279
2023-02-11T10:57:59.023Z,10214.399
2023-02-11T10:58:59.164Z,9902.08
2023-02-11T10:59:59.316Z,10045.439
2023-02-11T11:00:59.397Z,10030.08
2023-02-11T11:01:59.604Z,10224.64
2023-02-11T11:02:59.710Z,10086.399
2023-02-11T11:03:59.880Z,10024.96
2023-02-11T11:05:00.067Z,10455.04
2023-02-11T11:06:00.199Z,10368
2023-02-11T11:07:00.311Z,10711.04
2023-02-11T11:08:00.430Z,11253.76
2023-02-11T11:09:00.587Z,11202.56
2023-02-11T11:10:00.743Z,10926.08
2023-02-11T11:11:00.887Z,10485.76
2023-02-11T11:12:01.046Z,9728
2023-02-11T11:13:01.210Z,9564.16
2023-02-11T11:14:01.345Z,9620.479
2023-02-11T11:15:01.492Z,9052.16
2023-02-11T11:16:01.631Z,7956.48
2023-02-11T11:17:01.791Z,7705.6
2023-02-11T11:18:15.442Z,8166.4
2023-02-11T11:19:02.096Z,8038.4
2023-02-11T11:20:02.259Z,8704
2023-02-11T11:21:02.395Z,8519.68
2023-02-11T11:22:02.530Z,8130.56
2023-02-11T11:23:02.678Z,8432.64
2023-02-11T11:24:02.833Z,8842.24
2023-02-11T11:25:02.983Z,9221.12
2023-02-11T11:26:03.086Z,8837.12
2023-02-11T11:27:03.200Z,8186.88
2023-02-11T11:28:03.374Z,7157.76
2023-02-11T11:29:03.499Z,7244.8
2023-02-11T11:30:04.199Z,5913.6
2023-02-11T11:31:03.892Z,5143.04
2023-02-11T11:32:04.021Z,4920.32
2023-02-11T11:33:04.037Z,5800.96
2023-02-11T11:34:04.159Z,6364.16
2023-02-11T11:35:04.307Z,6056.96
2023-02-11T11:36:04.404Z,6138.88
2023-02-11T11:37:04.502Z,5867.52
2023-02-11T11:38:04.656Z,5939.2
2023-02-11T11:39:04.758Z,5504
2023-02-11T11:40:04.859Z,4933.12
2023-02-11T11:41:05.014Z,4971.52
2023-02-11T11:42:05.169Z,5452.8
2023-02-11T11:43:05.314Z,5519.36
2023-02-11T11:44:05.466Z,5575.68
2023-02-11T11:45:05.619Z,5739.52
2023-02-11T11:46:05.760Z,5294.08
2023-02-11T11:47:05.913Z,5457.92
2023-02-11T11:48:06.108Z,7014.4
2023-02-11T11:49:06.239Z,7854.08
2023-02-11T11:50:06.371Z,8560.64
2023-02-11T11:51:06.533Z,9006.08
2023-02-11T11:52:06.672Z,8913.92
2023-02-11T11:53:06.831Z,8509.439
2023-02-11T11:54:06.977Z,9026.56
2023-02-11T11:55:07.134Z,9144.319
2023-02-11T11:56:07.301Z,7915.52
2023-02-11T11:57:07.426Z,7470.08
2023-02-11T11:58:07.532Z,7956.48
2023-02-11T11:59:07.687Z,7874.56
2023-02-11T12:00:07.862Z,7331.84
2023-02-11T12:01:07.947Z,7367.68
2023-02-11T12:02:08.637Z,6835.2
2023-02-11T12:03:08.313Z,7244.8
2023-02-11T12:04:08.404Z,7848.96
2023-02-11T12:05:08.576Z,8386.56
2023-02-11T12:06:08.716Z,8176.64
2023-02-11T12:07:08.854Z,8120.32
2023-02-11T12:08:09.001Z,7408.64
2023-02-11T12:09:09.160Z,6691.84
2023-02-11T12:10:09.296Z,6205.44
2023-02-11T12:11:09.406Z,6016
2023-02-11T12:12:09.550Z,5642.24
2023-02-11T12:13:09.742Z,5744.64
2023-02-11T12:14:09.923Z,5744.64
2023-02-11T12:15:10.020Z,5698.56
2023-02-11T12:16:10.213Z,5447.68
2023-02-11T12:17:10.327Z,5442.56
2023-02-11T12:18:10.421Z,5294.08
2023-02-11T12:19:10.569Z,4910.08
2023-02-11T12:20:10.672Z,4661.76
2023-02-11T12:21:10.765Z,4741.12
2023-02-11T12:22:10.926Z,4679.68
2023-02-11T12:23:11.082Z,4613.12
2023-02-11T12:24:11.248Z,4677.12
2023-02-11T12:25:11.360Z,4702.72
2023-02-11T12:26:11.517Z,4779.52
2023-02-11T12:27:11.667Z,5237.76
2023-02-11T12:28:11.860Z,4963.84
2023-02-11T12:29:11.989Z,4876.8
2023-02-11T12:30:12.126Z,4577.28
2023-02-11T12:31:13.306Z,4277.76
2023-02-11T12:32:12.531Z,4572.16
2023-02-11T12:33:12.584Z,4856.32
2023-02-11T12:34:12.692Z,5009.92
2023-02-11T12:35:12.784Z,5004.8
2023-02-11T12:36:12.944Z,4966.4
2023-02-11T12:37:13.105Z,5120
2023-02-11T12:38:13.252Z,5102.08
2023-02-11T12:39:13.399Z,4989.44
2023-02-11T12:40:13.581Z,4815.36
2023-02-11T12:41:13.655Z,4620.8
2023-02-11T12:42:13.807Z,4518.4
2023-02-11T12:43:13.955Z,4282.88
2023-02-11T12:44:14.115Z,4034.56
2023-02-11T12:45:14.268Z,4162.56
2023-02-11T12:46:14.480Z,4136.96
2023-02-11T12:47:14.523Z,4129.28
2023-02-11T12:48:14.670Z,3896.32